createdAt,value
2019-04-07T00:02:10.030Z,11.34
2019-04-07T00:04:41.509Z,11.25
2019-04-07T00:07:14.743Z,11.30
2019-04-07T00:09:45.409Z,11.33
2019-04-07T00:12:16.322Z,11.36
2019-04-07T00:14:46.914Z,11.26
2019-04-07T00:17:17.924Z,11.39
2019-04-07T00:19:48.773Z,11.27
2019-04-07T00:22:20.955Z,11.19
2019-04-07T00:24:51.817Z,11.08
2019-04-07T00:27:23.000Z,11.16
2019-04-07T00:29:54.252Z,11.26
2019-04-07T00:32:25.118Z,11.26
2019-04-07T00:34:56.797Z,11.20
2019-04-07T00:37:28.288Z,11.22
2019-04-07T00:39:59.021Z,11.10
2019-04-07T00:42:30.022Z,11.04
2019-04-07T00:45:00.859Z,10.91
2019-04-07T00:47:31.453Z,10.84
2019-04-07T00:50:03.023Z,10.85
2019-04-07T00:52:34.926Z,10.80
2019-04-07T00:55:06.912Z,10.77
2019-04-07T00:57:37.765Z,10.85
2019-04-07T01:00:11.841Z,10.90
2019-04-07T01:02:44.036Z,10.91
2019-04-07T01:05:15.410Z,10.89
2019-04-07T01:07:47.086Z,10.92
2019-04-07T01:10:18.311Z,10.90
2019-04-07T01:12:50.107Z,10.87
2019-04-07T01:15:20.755Z,10.88
2019-04-07T01:17:51.508Z,10.56
2019-04-07T01:20:22.775Z,10.63
2019-04-07T01:22:53.375Z,10.63
2019-04-07T01:25:24.209Z,10.62
2019-04-07T01:27:55.480Z,10.47
2019-04-07T01:30:26.154Z,10.45
2019-04-07T01:32:57.541Z,10.36
2019-04-07T01:35:29.110Z,10.40
2019-04-07T01:37:59.947Z,10.35
2019-04-07T01:40:31.101Z,10.40
2019-04-07T01:43:06.484Z,10.44
2019-04-07T01:45:55.104Z,10.56
2019-04-07T01:48:44.758Z,10.51
2019-04-07T01:51:17.739Z,10.52
2019-04-07T01:53:56.527Z,10.20
2019-04-07T01:56:46.426Z,10.21
2019-04-07T01:59:18.823Z,10.31
2019-04-07T02:01:51.730Z,10.41
2019-04-07T02:04:27.052Z,10.18
2019-04-07T02:07:01.980Z,10.06
2019-04-07T02:09:44.417Z,10.25
2019-04-07T02:12:25.855Z,10.26
2019-04-07T02:15:02.282Z,10.26
2019-04-07T02:17:43.899Z,10.38
2019-04-07T02:20:45.146Z,10.28
2019-04-07T02:23:33.944Z,10.22
2019-04-07T02:26:06.250Z,10.23
2019-04-07T02:28:38.485Z,10.20
2019-04-07T02:31:23.494Z,10.22
2019-04-07T02:34:03.087Z,10.17
2019-04-07T02:36:38.785Z,10.18
2019-04-07T02:39:21.512Z,10.13
2019-04-07T02:41:57.084Z,10.06
2019-04-07T02:44:46.537Z,9.92
2019-04-07T02:47:18.805Z,9.80
2019-04-07T02:49:54.085Z,9.79
2019-04-07T02:52:30.269Z,9.84
2019-04-07T02:55:03.106Z,9.78
2019-04-07T02:57:51.597Z,9.70
2019-04-07T03:00:24.650Z,9.68
2019-04-07T03:02:58.097Z,9.69
2019-04-07T03:05:36.318Z,9.70
2019-04-07T03:08:12.005Z,9.75
2019-04-07T03:13:49.008Z,9.71
2019-04-07T03:16:31.173Z,9.72
2019-04-07T03:19:04.431Z,9.65
2019-04-07T03:21:45.818Z,9.43
2019-04-07T03:24:34.760Z,9.59
2019-04-07T03:27:08.042Z,9.52
2019-04-07T03:29:49.486Z,9.63
2019-04-07T03:32:28.054Z,9.59
2019-04-07T03:35:15.017Z,9.61
2019-04-07T03:37:53.161Z,9.59
2019-04-07T03:40:25.555Z,9.50
2019-04-07T03:42:57.775Z,9.42
2019-04-07T03:45:33.787Z,9.35
2019-04-07T03:48:15.831Z,9.39
2019-04-07T03:51:04.302Z,9.35
2019-04-07T03:53:39.638Z,9.39
2019-04-07T03:56:11.866Z,9.41
2019-04-07T03:58:50.771Z,9.44
2019-04-07T04:01:38.152Z,9.40
2019-04-07T04:04:13.717Z,9.24
2019-04-07T04:06:49.651Z,9.18
2019-04-07T04:09:22.346Z,9.18
2019-04-07T04:11:57.562Z,9.14
2019-04-07T04:14:33.418Z,9.07
2019-04-07T04:17:04.356Z,8.98
2019-04-07T04:19:36.086Z,8.91
2019-04-07T04:22:07.383Z,8.88
2019-04-07T04:24:38.491Z,8.97
2019-04-07T04:27:10.805Z,9.03
2019-04-07T04:29:41.584Z,9.02
2019-04-07T04:32:12.236Z,9.10
2019-04-07T04:34:43.217Z,9.19
2019-04-07T04:37:14.755Z,9.20
2019-04-07T04:39:46.299Z,9.25
2019-04-07T04:42:16.928Z,9.21
2019-04-07T04:44:47.774Z,9.15
2019-04-07T04:47:19.020Z,9.25
2019-04-07T04:49:50.880Z,9.30
2019-04-07T04:52:22.171Z,9.44
2019-04-07T04:54:53.669Z,9.36
2019-04-07T04:57:25.202Z,9.37
2019-04-07T04:59:56.005Z,9.44
2019-04-07T05:02:27.537Z,9.51
2019-04-07T05:04:59.389Z,9.53
2019-04-07T05:07:30.197Z,9.53
2019-04-07T05:10:01.833Z,9.58
2019-04-07T05:12:33.549Z,9.58
2019-04-07T05:15:05.339Z,9.53
2019-04-07T05:17:35.916Z,9.54
2019-04-07T05:20:06.894Z,9.65
2019-04-07T05:22:38.022Z,9.69
2019-04-07T05:25:09.424Z,9.82
2019-04-07T05:27:40.356Z,10.04
2019-04-07T05:30:11.319Z,10.06
2019-04-07T05:32:41.998Z,10.23
2019-04-07T05:35:13.195Z,10.35
2019-04-07T05:37:43.930Z,10.43
2019-04-07T05:40:15.678Z,10.52
2019-04-07T05:42:46.592Z,10.51
2019-04-07T05:45:17.338Z,10.62
2019-04-07T05:47:50.301Z,10.52
2019-04-07T05:50:21.077Z,10.55
2019-04-07T05:52:53.049Z,10.70
2019-04-07T05:55:24.467Z,10.78
2019-04-07T05:57:56.081Z,10.75
2019-04-07T06:00:27.229Z,10.86
2019-04-07T06:02:58.245Z,10.99
2019-04-07T06:05:30.237Z,10.96
2019-04-07T06:08:18.838Z,11.02
2019-04-07T06:10:33.768Z,11.24
2019-04-07T06:13:05.350Z,11.26
2019-04-07T06:15:36.674Z,11.27
2019-04-07T06:18:07.359Z,11.40
2019-04-07T06:20:38.059Z,11.59
2019-04-07T06:23:09.388Z,11.64
2019-04-07T06:25:42.337Z,11.85
2019-04-07T06:28:16.348Z,11.84
2019-04-07T06:30:45.110Z,12.25
2019-04-07T06:33:16.545Z,13.01
2019-04-07T06:35:47.868Z,14.53
2019-04-07T06:38:30.241Z,14.66
2019-04-07T06:40:56.549Z,15.35
2019-04-07T06:43:25.065Z,16.74
2019-04-07T06:46:12.891Z,18.03
2019-04-07T06:49:02.582Z,19.02
2019-04-07T06:51:51.261Z,18.94
2019-04-07T06:54:30.817Z,18.11
2019-04-07T06:57:19.464Z,18.73
2019-04-07T06:59:52.461Z,19.31
2019-04-07T07:02:31.899Z,20.19
2019-04-07T07:05:05.247Z,20.82
2019-04-07T07:07:48.235Z,21.34
2019-04-07T07:10:30.313Z,21.48
2019-04-07T07:13:15.523Z,22.44
2019-04-07T07:15:47.309Z,23.48
2019-04-07T07:18:21.304Z,23.26
2019-04-07T07:21:11.066Z,22.76
2019-04-07T07:23:47.675Z,22.58
2019-04-07T07:26:17.208Z,22.58
2019-04-07T07:28:47.816Z,23.58
2019-04-07T07:31:22.835Z,23.64
2019-04-07T07:33:50.694Z,23.49
2019-04-07T07:36:22.698Z,24.37
2019-04-07T07:38:58.841Z,24.69
2019-04-07T07:41:25.813Z,24.94
2019-04-07T07:44:01.427Z,25.16
2019-04-07T07:46:29.457Z,24.69
2019-04-07T07:49:01.937Z,24.45
2019-04-07T07:51:32.900Z,24.14
2019-04-07T07:54:04.565Z,24.36
2019-04-07T07:56:36.721Z,24.39
2019-04-07T07:59:07.759Z,23.66
2019-04-07T08:01:38.673Z,23.17
2019-04-07T08:04:09.768Z,22.60
2019-04-07T08:06:41.037Z,23.16
2019-04-07T08:09:15.551Z,22.79
2019-04-07T08:11:45.139Z,22.97
2019-04-07T08:14:18.224Z,22.58
2019-04-07T08:16:48.040Z,21.79
2019-04-07T08:19:19.013Z,21.60
2019-04-07T08:21:51.238Z,22.35
2019-04-07T08:24:22.898Z,22.08
2019-04-07T08:26:56.304Z,22.35
2019-04-07T08:29:26.975Z,22.47
2019-04-07T08:31:57.745Z,22.33
2019-04-07T08:34:30.513Z,22.73
2019-04-07T08:37:01.004Z,22.03
2019-04-07T08:39:34.710Z,22.08
2019-04-07T08:42:09.814Z,22.36
2019-04-07T08:44:37.692Z,22.47
2019-04-07T08:47:10.743Z,21.90
2019-04-07T08:49:41.576Z,21.90
2019-04-07T08:52:12.702Z,21.90
2019-04-07T08:54:44.360Z,21.00
2019-04-07T08:57:16.314Z,21.54
2019-04-07T08:59:46.972Z,21.84
2019-04-07T09:02:19.006Z,22.07
2019-04-07T09:04:52.322Z,22.28
2019-04-07T09:07:24.534Z,22.73
2019-04-07T09:09:56.676Z,22.05
2019-04-07T09:12:29.972Z,21.75
2019-04-07T09:15:03.153Z,21.97
2019-04-07T09:17:40.483Z,21.68
2019-04-07T09:20:25.675Z,20.99
2019-04-07T09:22:58.249Z,21.36
2019-04-07T09:25:33.161Z,21.35
2019-04-07T09:28:08.942Z,21.10
2019-04-07T09:30:41.147Z,20.63
2019-04-07T09:33:34.510Z,20.77
2019-04-07T09:36:22.341Z,20.79
2019-04-07T09:39:03.582Z,20.84
2019-04-07T09:41:45.093Z,22.13
2019-04-07T09:44:26.588Z,21.99
2019-04-07T09:47:16.462Z,21.29
2019-04-07T09:50:04.949Z,21.11
2019-04-07T09:52:49.305Z,20.10
2019-04-07T09:55:24.326Z,20.65
2019-04-07T09:57:59.443Z,20.84
2019-04-07T10:00:38.752Z,20.85
2019-04-07T10:03:27.086Z,20.43
2019-04-07T10:06:11.245Z,21.31
2019-04-07T10:08:52.441Z,21.20
2019-04-07T10:11:25.208Z,21.18
2019-04-07T10:14:01.106Z,22.10
2019-04-07T10:16:36.542Z,21.84
2019-04-07T10:19:11.100Z,21.53
2019-04-07T10:21:49.815Z,21.26
2019-04-07T10:24:32.557Z,21.94
2019-04-07T10:27:06.986Z,21.97
2019-04-07T10:29:46.298Z,21.74
2019-04-07T10:32:18.893Z,20.66
2019-04-07T10:35:06.946Z,20.38
2019-04-07T10:37:52.267Z,20.63
2019-04-07T10:40:40.158Z,20.55
2019-04-07T10:43:15.536Z,20.56
2019-04-07T10:45:48.332Z,19.85
2019-04-07T10:48:24.955Z,19.63
2019-04-07T10:50:58.986Z,19.38
2019-04-07T10:53:40.567Z,19.55
2019-04-07T10:56:12.807Z,19.51
2019-04-07T10:58:48.321Z,19.68
2019-04-07T11:01:21.031Z,19.82
2019-04-07T11:04:06.796Z,20.04
2019-04-07T11:06:46.138Z,20.24
2019-04-07T11:09:18.556Z,20.21
2019-04-07T11:11:51.120Z,20.44
2019-04-07T11:14:33.106Z,19.92
2019-04-07T11:17:17.253Z,19.58
2019-04-07T11:20:01.727Z,19.91
2019-04-07T11:22:50.359Z,20.17
2019-04-07T11:25:22.840Z,19.95
2019-04-07T11:27:55.318Z,19.99
2019-04-07T11:30:27.606Z,20.07
2019-04-07T11:32:59.826Z,20.23
2019-04-07T11:35:41.464Z,20.51
2019-04-07T11:38:13.691Z,20.18
2019-04-07T11:40:53.540Z,19.96
2019-04-07T11:43:32.587Z,19.96
2019-04-07T11:46:05.705Z,19.50
2019-04-07T11:48:38.332Z,19.67
2019-04-07T11:51:10.761Z,19.35
2019-04-07T11:53:45.928Z,19.22
2019-04-07T11:56:18.166Z,19.47
2019-04-07T11:58:50.559Z,19.59
2019-04-07T12:01:38.256Z,19.49
2019-04-07T12:04:11.216Z,19.40
2019-04-07T12:07:00.608Z,19.41
2019-04-07T12:09:36.978Z,19.51
2019-04-07T12:12:22.808Z,19.50
2019-04-07T12:14:58.873Z,19.79
2019-04-07T12:17:41.474Z,19.96
2019-04-07T12:20:11.946Z,20.33
2019-04-07T12:25:44.345Z,20.48
2019-04-07T12:28:20.303Z,20.19
2019-04-07T12:31:08.600Z,20.17
2019-04-07T12:33:40.887Z,20.27
2019-04-07T12:36:31.094Z,20.17
2019-04-07T12:39:12.138Z,20.00
2019-04-07T12:41:47.576Z,20.02
2019-04-07T12:44:25.576Z,20.09
2019-04-07T12:47:10.233Z,20.17
2019-04-07T12:49:46.106Z,20.36
2019-04-07T12:52:28.107Z,20.07
2019-04-07T12:55:15.326Z,20.02
2019-04-07T12:58:02.060Z,20.09
2019-04-07T13:00:56.988Z,20.22
2019-04-07T13:03:31.104Z,20.21
2019-04-07T13:06:06.334Z,20.32
2019-04-07T13:08:38.169Z,20.22
2019-04-07T13:11:33.983Z,20.15
2019-04-07T13:14:08.321Z,19.93
2019-04-07T13:16:40.309Z,19.99
2019-04-07T13:19:29.604Z,19.83
2019-04-07T13:22:13.854Z,19.92
2019-04-07T13:24:48.502Z,20.16
2019-04-07T13:27:29.711Z,20.35
2019-04-07T13:30:02.834Z,20.22
2019-04-07T13:32:44.843Z,20.10
2019-04-07T13:35:35.380Z,20.30
2019-04-07T13:38:24.031Z,20.24
2019-04-07T13:40:59.511Z,20.10
2019-04-07T13:43:35.843Z,20.02
2019-04-07T13:46:20.391Z,19.94
2019-04-07T13:48:51.551Z,20.07
2019-04-07T13:51:25.409Z,20.05
2019-04-07T13:54:10.985Z,20.10
2019-04-07T13:56:52.111Z,20.17
2019-04-07T13:59:39.212Z,20.13
2019-04-07T14:02:27.861Z,20.04
2019-04-07T14:04:58.784Z,20.17
2019-04-07T14:07:40.104Z,19.89
2019-04-07T14:10:25.613Z,19.93
2019-04-07T14:13:14.806Z,19.88
2019-04-07T14:15:48.528Z,19.99
2019-04-07T14:18:29.451Z,20.08
2019-04-07T14:21:01.725Z,20.17
2019-04-07T14:23:54.515Z,20.16
2019-04-07T14:26:27.931Z,19.79
2019-04-07T14:29:01.090Z,19.84
2019-04-07T14:31:37.879Z,19.66
2019-04-07T14:34:12.971Z,19.77
2019-04-07T14:36:45.766Z,19.50
2019-04-07T14:39:20.519Z,19.63
2019-04-07T14:42:03.942Z,19.67
2019-04-07T14:44:38.743Z,19.85
2019-04-07T14:47:29.115Z,19.91
2019-04-07T14:50:04.886Z,20.01
2019-04-07T14:52:41.113Z,19.73
2019-04-07T14:55:32.568Z,19.63
2019-04-07T14:58:05.650Z,19.71
2019-04-07T15:00:47.470Z,19.69
2019-04-07T15:03:18.112Z,19.74
2019-04-07T15:05:50.666Z,19.50
2019-04-07T15:08:31.942Z,19.44
2019-04-07T15:11:16.612Z,19.27
2019-04-07T15:13:47.450Z,19.33
2019-04-07T15:16:18.531Z,19.39
2019-04-07T15:18:50.036Z,19.44
2019-04-07T15:21:21.014Z,19.28
2019-04-07T15:23:51.847Z,19.38
2019-04-07T15:26:22.469Z,19.30
2019-04-07T15:28:53.742Z,19.28
2019-04-07T15:31:24.979Z,19.08
2019-04-07T15:33:56.400Z,19.01
2019-04-07T15:36:27.909Z,19.04
2019-04-07T15:38:59.552Z,19.08
2019-04-07T15:41:32.692Z,19.15
2019-04-07T15:44:06.308Z,19.12
2019-04-07T15:46:36.656Z,19.09
2019-04-07T15:49:08.831Z,19.09
2019-04-07T15:51:41.582Z,18.96
2019-04-07T15:54:12.267Z,18.95
2019-04-07T15:56:45.430Z,18.92
2019-04-07T15:59:17.590Z,18.90
2019-04-07T16:01:47.806Z,18.85
2019-04-07T16:04:25.154Z,18.88
2019-04-07T16:06:51.574Z,18.90
2019-04-07T16:09:36.125Z,18.84
2019-04-07T16:11:57.399Z,18.88
2019-04-07T16:14:27.712Z,18.82
2019-04-07T16:17:02.095Z,18.69
2019-04-07T16:19:39.737Z,18.56
2019-04-07T16:22:03.234Z,18.64
2019-04-07T16:24:34.879Z,18.64
2019-04-07T16:27:07.814Z,18.60
2019-04-07T16:29:39.829Z,18.56
2019-04-07T16:32:11.315Z,18.59
2019-04-07T16:34:42.831Z,18.65
2019-04-07T16:37:14.263Z,18.58
2019-04-07T16:39:45.659Z,18.50
2019-04-07T16:42:17.175Z,18.45
2019-04-07T16:44:48.338Z,18.49
2019-04-07T16:47:24.398Z,18.45
2019-04-07T16:49:54.673Z,18.49
2019-04-07T16:52:25.579Z,18.50
2019-04-07T16:54:56.107Z,18.41
2019-04-07T16:57:30.152Z,18.39
2019-04-07T17:00:00.331Z,18.32
2019-04-07T17:02:31.696Z,18.29
2019-04-07T17:05:02.297Z,18.22
2019-04-07T17:07:33.938Z,18.10
2019-04-07T17:10:05.691Z,18.14
2019-04-07T17:12:36.847Z,18.08
2019-04-07T17:15:08.793Z,18.08
2019-04-07T17:17:40.024Z,18.11
2019-04-07T17:20:12.426Z,18.04
2019-04-07T17:22:45.901Z,18.01
2019-04-07T17:25:15.698Z,17.79
2019-04-07T17:27:46.549Z,17.58
2019-04-07T17:30:23.172Z,17.19
2019-04-07T17:32:53.386Z,16.94
2019-04-07T17:35:24.436Z,16.79
2019-04-07T17:38:02.502Z,16.62
2019-04-07T17:40:30.814Z,16.35
2019-04-07T17:43:09.217Z,16.21
2019-04-07T17:45:45.123Z,16.05
2019-04-07T17:48:37.368Z,15.96
2019-04-07T17:51:05.879Z,15.92
2019-04-07T17:53:52.827Z,15.86
2019-04-07T17:56:42.823Z,15.80
2019-04-07T17:59:19.500Z,15.77
2019-04-07T18:02:08.560Z,15.69
2019-04-07T18:04:42.915Z,15.51
2019-04-07T18:07:42.807Z,15.46
2019-04-07T18:10:32.505Z,15.33
2019-04-07T18:13:15.772Z,15.21
2019-04-07T18:15:48.769Z,15.13
2019-04-07T18:18:36.661Z,15.11
2019-04-07T18:21:19.039Z,14.95
2019-04-07T18:24:01.272Z,14.86
2019-04-07T18:26:37.350Z,14.86
2019-04-07T18:29:23.163Z,14.78
2019-04-07T18:31:59.852Z,14.75
2019-04-07T18:34:33.538Z,14.68
2019-04-07T18:37:09.655Z,14.62
2019-04-07T18:40:01.693Z,14.55
2019-04-07T18:42:41.419Z,14.45
2019-04-07T18:45:19.334Z,14.27
2019-04-07T18:47:59.420Z,14.10
2019-04-07T18:50:38.923Z,14.05
2019-04-07T18:53:18.895Z,13.94
2019-04-07T18:56:09.760Z,13.82
2019-04-07T18:58:54.753Z,13.72
2019-04-07T19:01:28.591Z,13.71
2019-04-07T19:04:17.400Z,13.68
2019-04-07T19:06:53.826Z,13.67
2019-04-07T19:09:31.160Z,13.57
2019-04-07T19:12:10.450Z,13.49
2019-04-07T19:15:03.138Z,13.25
2019-04-07T19:17:31.756Z,13.18
2019-04-07T19:20:22.938Z,13.22
2019-04-07T19:23:02.337Z,13.31
2019-04-07T19:25:35.596Z,13.30
2019-04-07T19:28:07.985Z,13.28
2019-04-07T19:30:51.113Z,13.29
2019-04-07T19:33:24.407Z,13.02
2019-04-07T19:35:57.958Z,13.18
2019-04-07T19:38:33.691Z,13.13
2019-04-07T19:41:24.304Z,13.07
2019-04-07T19:44:17.486Z,13.02
2019-04-07T19:46:50.297Z,12.97
2019-04-07T19:49:24.626Z,12.95
2019-04-07T19:52:16.267Z,12.95
2019-04-07T19:54:51.593Z,12.86
2019-04-07T19:57:38.864Z,12.82
2019-04-07T20:00:26.645Z,12.86
2019-04-07T20:03:11.711Z,12.72
2019-04-07T20:05:42.974Z,12.71
2019-04-07T20:08:20.489Z,12.65
2019-04-07T20:10:54.552Z,12.62
2019-04-07T20:13:30.046Z,12.66
2019-04-07T20:16:12.871Z,12.65
2019-04-07T20:18:43.784Z,12.55
2019-04-07T20:21:34.759Z,12.54
2019-04-07T20:24:17.640Z,12.66
2019-04-07T20:26:56.717Z,12.63
2019-04-07T20:29:38.070Z,12.46
2019-04-07T20:32:14.493Z,12.49
2019-04-07T20:35:03.336Z,12.43
2019-04-07T20:37:38.479Z,12.43
2019-04-07T20:40:11.722Z,12.44
2019-04-07T20:42:50.546Z,12.44
2019-04-07T20:45:26.813Z,12.25
2019-04-07T20:48:00.646Z,12.16
2019-04-07T20:50:52.843Z,12.17
2019-04-07T20:53:38.597Z,12.11
2019-04-07T20:56:23.011Z,12.10
2019-04-07T20:59:11.839Z,12.00
2019-04-07T21:02:00.735Z,11.96
2019-04-07T21:04:21.684Z,11.75
2019-04-07T21:07:06.070Z,11.81
2019-04-07T21:09:38.533Z,11.73
2019-04-07T21:12:13.264Z,11.79
2019-04-07T21:14:59.668Z,11.72
2019-04-07T21:17:46.639Z,11.73
2019-04-07T21:20:22.312Z,11.64
2019-04-07T21:23:07.106Z,11.75
2019-04-07T21:25:41.447Z,11.69
2019-04-07T21:28:28.947Z,11.61
2019-04-07T21:31:07.220Z,11.61
2019-04-07T21:33:55.227Z,11.61
2019-04-07T21:36:41.781Z,11.62
2019-04-07T21:39:14.326Z,11.58
2019-04-07T21:41:46.607Z,11.67
2019-04-07T21:44:22.141Z,11.52
2019-04-07T21:47:04.315Z,11.56
2019-04-07T21:49:38.575Z,11.51
2019-04-07T21:52:23.028Z,11.54
2019-04-07T21:54:55.596Z,11.50
2019-04-07T21:57:50.752Z,11.27
2019-04-07T22:00:35.196Z,11.33
2019-04-07T22:03:11.393Z,11.26
2019-04-07T22:05:43.343Z,11.16
2019-04-07T22:08:17.763Z,10.99
2019-04-07T22:10:51.361Z,10.94
2019-04-07T22:13:20.518Z,10.86
2019-04-07T22:15:56.233Z,10.87
2019-04-07T22:18:23.644Z,10.81
2019-04-07T22:20:55.791Z,10.81
2019-04-07T22:23:29.577Z,10.74
2019-04-07T22:25:59.007Z,10.82
2019-04-07T22:28:30.321Z,10.82
2019-04-07T22:31:01.892Z,10.85
2019-04-07T22:33:33.736Z,10.63
2019-04-07T22:36:04.643Z,10.77
2019-04-07T22:38:35.715Z,10.73
2019-04-07T22:41:08.926Z,10.63
2019-04-07T22:43:40.169Z,10.66
2019-04-07T22:46:17.493Z,10.63
2019-04-07T22:48:44.723Z,10.77
2019-04-07T22:51:15.322Z,10.70
2019-04-07T22:53:45.912Z,10.69
2019-04-07T22:56:16.469Z,10.59
2019-04-07T22:58:47.071Z,10.39
2019-04-07T23:01:18.604Z,10.30
2019-04-07T23:03:49.695Z,10.31
2019-04-07T23:06:21.066Z,10.23
2019-04-07T23:08:51.737Z,10.29
2019-04-07T23:11:22.516Z,10.29
2019-04-07T23:13:53.428Z,10.27
2019-04-07T23:16:24.359Z,10.31
2019-04-07T23:18:54.942Z,10.25
2019-04-07T23:21:25.523Z,10.23
2019-04-07T23:23:56.125Z,10.26
2019-04-07T23:26:26.694Z,10.20
2019-04-07T23:28:57.262Z,10.11
2019-04-07T23:31:30.607Z,10.12
2019-04-07T23:34:01.185Z,10.10
2019-04-07T23:36:31.758Z,10.18
2019-04-07T23:39:02.321Z,10.11
2019-04-07T23:41:34.010Z,10.10
2019-04-07T23:44:05.853Z,9.81
2019-04-07T23:46:36.554Z,9.94
2019-04-07T23:49:07.111Z,9.95
2019-04-07T23:51:37.690Z,9.89
2019-04-07T23:54:12.447Z,9.77
2019-04-07T23:56:43.882Z,9.66
2019-04-07T23:59:16.784Z,9.60
